ZBTJ/TSN METAR and TAF weather

Enter ICAO airport designator
Station Type Date Time Source
ZBTJ METAR 2018/12/15 22:30 UTC NOAA

ZBTJ 152230Z 00000MPS 1000 R34L/P2000N R34R/P2000N BR NSC M06/M08 Q1022 NOSIG


Station Type Date Time Source
ZBTJ Decoded METAR 2018/12/15 22:30 UTC NOAA

Tianjin / Zhangguizhu, China (ZBTJ) 39-11N 117-21E
Dec 15, 2018 - 05:30 PM EST / 2018.12.15 2230 UTC
Wind: Calm:0
Visibility: less than 1 mile:0
Weather: mist
Temperature: 21 F (-6 C)
Dew Point: 17 F (-8 C)
Relative Humidity: 85%
Pressure (altimeter): 30.18 in. Hg (1022 hPa)
ob: ZBTJ 152230Z 00000MPS 1000 R34L/P2000N R34R/P2000N BR NSC M06/M08 Q1022 NOSIG
cycle: 22

Station Type Date Time Source
ZBTJ TAF 2018/12/15 18:03 UTC NOAA

TAF ZBTJ 151500Z 1518/1618 23003MPS 1400 BR NSC TX06/1606Z TNM05/21Z
BECMG 1522/1523 2700
BECMG 1602/1603 30006MPS 5000 HZ


Example: see airport list